sensor_id;sensor_type;location;lat;lon;timestamp;temperature;humidity
37702;DHT22;23548;51.196;6.838;2023-03-13T00:01:01;10.10;99.90
37702;DHT22;23548;51.196;6.838;2023-03-13T00:03:28;10.10;99.90
37702;DHT22;23548;51.196;6.838;2023-03-13T00:05:57;10.10;99.90
37702;DHT22;23548;51.196;6.838;2023-03-13T00:08:29;10.10;99.90
37702;DHT22;23548;51.196;6.838;2023-03-13T00:10:55;10.00;99.90
37702;DHT22;23548;51.196;6.838;2023-03-13T00:13:21;10.10;99.90
37702;DHT22;23548;51.196;6.838;2023-03-13T00:15:47;10.20;99.90
37702;DHT22;23548;51.196;6.838;2023-03-13T00:18:12;10.20;99.90
37702;DHT22;23548;51.196;6.838;2023-03-13T00:20:39;10.30;99.90
37702;DHT22;23548;51.196;6.838;2023-03-13T00:23:05;10.30;99.90
37702;DHT22;23548;51.196;6.838;2023-03-13T00:25:30;10.40;99.90
37702;DHT22;23548;51.196;6.838;2023-03-13T00:27:56;10.40;99.90
37702;DHT22;23548;51.196;6.838;2023-03-13T00:30:22;10.40;99.90
37702;DHT22;23548;51.196;6.838;2023-03-13T00:32:48;10.30;99.90
37702;DHT22;23548;51.196;6.838;2023-03-13T00:35:14;10.30;99.90
37702;DHT22;23548;51.196;6.838;2023-03-13T00:37:40;10.40;99.90
37702;DHT22;23548;51.196;6.838;2023-03-13T00:40:07;10.30;99.90
37702;DHT22;23548;51.196;6.838;2023-03-13T00:42:33;10.30;99.90
37702;DHT22;23548;51.196;6.838;2023-03-13T00:44:59;10.30;99.90
37702;DHT22;23548;51.196;6.838;2023-03-13T00:47:25;10.30;99.90
37702;DHT22;23548;51.196;6.838;2023-03-13T00:49:51;10.30;99.90
37702;DHT22;23548;51.196;6.838;2023-03-13T00:52:17;10.20;99.90
37702;DHT22;23548;51.196;6.838;2023-03-13T00:54:43;10.20;99.90
37702;DHT22;23548;51.196;6.838;2023-03-13T00:57:09;10.20;99.90
37702;DHT22;23548;51.196;6.838;2023-03-13T00:59:34;10.30;99.90
37702;DHT22;23548;51.196;6.838;2023-03-13T01:02:00;10.30;99.90
37702;DHT22;23548;51.196;6.838;2023-03-13T01:04:26;10.30;99.90
37702;DHT22;23548;51.196;6.838;2023-03-13T01:06:52;10.20;99.90
37702;DHT22;23548;51.196;6.838;2023-03-13T01:09:17;10.20;99.90
37702;DHT22;23548;51.196;6.838;2023-03-13T01:11:44;10.20;99.90
37702;DHT22;23548;51.196;6.838;2023-03-13T01:14:16;10.10;99.90
37702;DHT22;23548;51.196;6.838;2023-03-13T01:16:42;10.00;99.90
37702;DHT22;23548;51.196;6.838;2023-03-13T01:19:10;10.00;99.90
37702;DHT22;23548;51.196;6.838;2023-03-13T01:21:36;10.00;99.90
37702;DHT22;23548;51.196;6.838;2023-03-13T01:24:03;10.10;99.90
37702;DHT22;23548;51.196;6.838;2023-03-13T01:26:29;10.00;99.90
37702;DHT22;23548;51.196;6.838;2023-03-13T01:28:56;10.10;99.90
37702;DHT22;23548;51.196;6.838;2023-03-13T01:31:25;10.10;99.90
37702;DHT22;23548;51.196;6.838;2023-03-13T01:33:54;10.20;99.90
37702;DHT22;23548;51.196;6.838;2023-03-13T01:36:20;10.10;99.90
37702;DHT22;23548;51.196;6.838;2023-03-13T01:38:51;10.20;99.90
37702;DHT22;23548;51.196;6.838;2023-03-13T01:41:18;10.20;99.90
37702;DHT22;23548;51.196;6.838;2023-03-13T01:43:45;10.30;99.90
37702;DHT22;23548;51.196;6.838;2023-03-13T01:46:17;10.30;99.90
37702;DHT22;23548;51.196;6.838;2023-03-13T01:48:48;10.30;99.90
37702;DHT22;23548;51.196;6.838;2023-03-13T01:51:23;10.30;99.90
37702;DHT22;23548;51.196;6.838;2023-03-13T01:53:55;10.40;99.90
37702;DHT22;23548;51.196;6.838;2023-03-13T01:56:25;10.50;99.90
37702;DHT22;23548;51.196;6.838;2023-03-13T01:58:52;10.60;99.90
37702;DHT22;23548;51.196;6.838;2023-03-13T02:01:20;10.60;99.90
37702;DHT22;23548;51.196;6.838;2023-03-13T02:07:19;10.50;99.90
37702;DHT22;23548;51.196;6.838;2023-03-13T02:09:48;10.50;99.90
37702;DHT22;23548;51.196;6.838;2023-03-13T02:12:26;10.50;99.90
37702;DHT22;23548;51.196;6.838;2023-03-13T02:14:54;10.50;99.90
37702;DHT22;23548;51.196;6.838;2023-03-13T02:17:23;10.50;99.90
37702;DHT22;23548;51.196;6.838;2023-03-13T02:19:49;10.50;99.90
37702;DHT22;23548;51.196;6.838;2023-03-13T02:22:32;10.60;99.90
37702;DHT22;23548;51.196;6.838;2023-03-13T02:27:31;10.60;99.90
37702;DHT22;23548;51.196;6.838;2023-03-13T02:29:58;10.70;99.90
37702;DHT22;23548;51.196;6.838;2023-03-13T02:32:25;10.70;99.90
37702;DHT22;23548;51.196;6.838;2023-03-13T02:34:55;10.70;99.90
37702;DHT22;23548;51.196;6.838;2023-03-13T02:37:22;10.70;99.90
37702;DHT22;23548;51.196;6.838;2023-03-13T02:39:50;10.80;99.90
37702;DHT22;23548;51.196;6.838;2023-03-13T02:42:18;10.80;99.90
37702;DHT22;23548;51.196;6.838;2023-03-13T02:44:45;10.80;99.90
37702;DHT22;23548;51.196;6.838;2023-03-13T02:47:12;10.80;99.90
37702;DHT22;23548;51.196;6.838;2023-03-13T02:49:41;10.80;99.90
37702;DHT22;23548;51.196;6.838;2023-03-13T02:52:17;10.80;99.90
37702;DHT22;23548;51.196;6.838;2023-03-13T02:54:46;10.70;99.90
37702;DHT22;23548;51.196;6.838;2023-03-13T02:57:12;10.70;99.90
37702;DHT22;23548;51.196;6.838;2023-03-13T02:59:38;10.70;99.90
37702;DHT22;23548;51.196;6.838;2023-03-13T03:02:04;10.60;99.90
37702;DHT22;23548;51.196;6.838;2023-03-13T03:04:30;10.60;99.90
37702;DHT22;23548;51.196;6.838;2023-03-13T03:06:56;10.50;99.90
37702;DHT22;23548;51.196;6.838;2023-03-13T03:09:22;10.60;99.90
37702;DHT22;23548;51.196;6.838;2023-03-13T03:11:48;10.60;99.90
37702;DHT22;23548;51.196;6.838;2023-03-13T03:14:14;10.60;99.90
37702;DHT22;23548;51.196;6.838;2023-03-13T03:16:40;10.70;99.90
37702;DHT22;23548;51.196;6.838;2023-03-13T03:19:06;10.80;99.90
37702;DHT22;23548;51.196;6.838;2023-03-13T03:21:33;10.80;99.90
37702;DHT22;23548;51.196;6.838;2023-03-13T03:23:59;10.80;99.90
37702;DHT22;23548;51.196;6.838;2023-03-13T03:26:25;10.80;99.90
37702;DHT22;23548;51.196;6.838;2023-03-13T03:28:51;10.80;99.90
37702;DHT22;23548;51.196;6.838;2023-03-13T03:31:16;10.80;99.90
37702;DHT22;23548;51.196;6.838;2023-03-13T03:33:43;10.90;99.90
37702;DHT22;23548;51.196;6.838;2023-03-13T03:36:11;10.90;99.90
37702;DHT22;23548;51.196;6.838;2023-03-13T03:38:38;10.90;99.90
37702;DHT22;23548;51.196;6.838;2023-03-13T03:41:08;10.90;99.90
37702;DHT22;23548;51.196;6.838;2023-03-13T03:43:34;11.00;99.90
37702;DHT22;23548;51.196;6.838;2023-03-13T03:46:01;11.00;99.90
37702;DHT22;23548;51.196;6.838;2023-03-13T03:48:27;11.00;99.90
37702;DHT22;23548;51.196;6.838;2023-03-13T03:50:53;11.10;99.90
37702;DHT22;23548;51.196;6.838;2023-03-13T03:53:19;11.10;99.90
37702;DHT22;23548;51.196;6.838;2023-03-13T03:55:44;11.10;99.90
37702;DHT22;23548;51.196;6.838;2023-03-13T03:58:10;11.10;99.90
37702;DHT22;23548;51.196;6.838;2023-03-13T04:00:36;11.10;99.90
37702;DHT22;23548;51.196;6.838;2023-03-13T04:03:02;11.10;99.90
37702;DHT22;23548;51.196;6.838;2023-03-13T04:05:28;11.10;99.90
37702;DHT22;23548;51.196;6.838;2023-03-13T04:07:54;11.10;99.90
37702;DHT22;23548;51.196;6.838;2023-03-13T04:10:20;11.10;99.90
37702;DHT22;23548;51.196;6.838;2023-03-13T04:12:46;11.10;99.90
37702;DHT22;23548;51.196;6.838;2023-03-13T04:15:12;11.10;99.90
37702;DHT22;23548;51.196;6.838;2023-03-13T04:17:37;11.20;99.90
37702;DHT22;23548;51.196;6.838;2023-03-13T04:20:04;11.20;99.90
37702;DHT22;23548;51.196;6.838;2023-03-13T04:22:31;11.20;99.90
37702;DHT22;23548;51.196;6.838;2023-03-13T04:24:56;11.20;99.90
37702;DHT22;23548;51.196;6.838;2023-03-13T04:27:22;11.20;99.90
37702;DHT22;23548;51.196;6.838;2023-03-13T04:29:48;11.20;99.90
37702;DHT22;23548;51.196;6.838;2023-03-13T04:32:13;11.20;99.90
37702;DHT22;23548;51.196;6.838;2023-03-13T04:34:39;11.30;99.90
37702;DHT22;23548;51.196;6.838;2023-03-13T04:37:05;11.30;99.90
37702;DHT22;23548;51.196;6.838;2023-03-13T04:39:31;11.30;99.90
37702;DHT22;23548;51.196;6.838;2023-03-13T04:41:56;11.30;99.90
37702;DHT22;23548;51.196;6.838;2023-03-13T04:44:22;11.30;99.90
37702;DHT22;23548;51.196;6.838;2023-03-13T04:46:48;11.30;99.90
37702;DHT22;23548;51.196;6.838;2023-03-13T04:49:15;11.30;99.90
37702;DHT22;23548;51.196;6.838;2023-03-13T04:51:41;11.40;99.90
37702;DHT22;23548;51.196;6.838;2023-03-13T04:54:08;11.40;99.90
37702;DHT22;23548;51.196;6.838;2023-03-13T04:56:34;11.40;99.90
37702;DHT22;23548;51.196;6.838;2023-03-13T04:59:00;11.50;99.90
37702;DHT22;23548;51.196;6.838;2023-03-13T05:01:25;11.50;99.90
37702;DHT22;23548;51.196;6.838;2023-03-13T05:03:51;11.60;99.90
37702;DHT22;23548;51.196;6.838;2023-03-13T05:06:17;11.80;99.90
37702;DHT22;23548;51.196;6.838;2023-03-13T05:08:43;11.80;99.90
37702;DHT22;23548;51.196;6.838;2023-03-13T05:11:09;11.90;99.90
37702;DHT22;23548;51.196;6.838;2023-03-13T05:13:34;12.10;99.90
37702;DHT22;23548;51.196;6.838;2023-03-13T05:16:00;12.10;99.90
37702;DHT22;23548;51.196;6.838;2023-03-13T05:18:26;12.30;99.90
37702;DHT22;23548;51.196;6.838;2023-03-13T05:20:52;12.40;99.90
37702;DHT22;23548;51.196;6.838;2023-03-13T05:23:18;12.50;99.90
37702;DHT22;23548;51.196;6.838;2023-03-13T05:25:44;12.70;99.90
37702;DHT22;23548;51.196;6.838;2023-03-13T05:28:10;12.80;99.90
37702;DHT22;23548;51.196;6.838;2023-03-13T05:30:36;12.80;99.90
37702;DHT22;23548;51.196;6.838;2023-03-13T05:33:02;12.90;99.90
37702;DHT22;23548;51.196;6.838;2023-03-13T05:35:28;12.90;99.90
37702;DHT22;23548;51.196;6.838;2023-03-13T05:37:54;12.90;99.90
37702;DHT22;23548;51.196;6.838;2023-03-13T05:40:19;12.90;99.90
37702;DHT22;23548;51.196;6.838;2023-03-13T05:42:45;12.90;99.90
37702;DHT22;23548;51.196;6.838;2023-03-13T05:45:11;12.90;99.90
37702;DHT22;23548;51.196;6.838;2023-03-13T05:47:37;12.90;99.90
37702;DHT22;23548;51.196;6.838;2023-03-13T05:50:06;12.90;99.90
37702;DHT22;23548;51.196;6.838;2023-03-13T05:52:32;12.90;99.90
37702;DHT22;23548;51.196;6.838;2023-03-13T05:54:58;12.90;99.90
37702;DHT22;23548;51.196;6.838;2023-03-13T05:57:24;12.90;99.90
37702;DHT22;23548;51.196;6.838;2023-03-13T05:59:50;13.00;99.90
37702;DHT22;23548;51.196;6.838;2023-03-13T06:02:16;13.00;99.90
37702;DHT22;23548;51.196;6.838;2023-03-13T06:04:41;13.10;99.90
37702;DHT22;23548;51.196;6.838;2023-03-13T06:07:07;13.10;99.90
37702;DHT22;23548;51.196;6.838;2023-03-13T06:09:33;13.10;99.90
37702;DHT22;23548;51.196;6.838;2023-03-13T06:11:58;13.10;99.90
37702;DHT22;23548;51.196;6.838;2023-03-13T06:14:24;13.20;99.90
37702;DHT22;23548;51.196;6.838;2023-03-13T06:16:50;13.10;99.90
37702;DHT22;23548;51.196;6.838;2023-03-13T06:19:16;13.20;99.90
37702;DHT22;23548;51.196;6.838;2023-03-13T06:21:42;13.20;99.90
37702;DHT22;23548;51.196;6.838;2023-03-13T06:24:08;13.20;99.90
37702;DHT22;23548;51.196;6.838;2023-03-13T06:26:33;13.20;99.90
37702;DHT22;23548;51.196;6.838;2023-03-13T06:28:59;13.20;99.90
37702;DHT22;23548;51.196;6.838;2023-03-13T06:31:25;13.30;99.90
37702;DHT22;23548;51.196;6.838;2023-03-13T06:33:54;13.30;99.90
37702;DHT22;23548;51.196;6.838;2023-03-13T06:36:21;13.40;99.90
37702;DHT22;23548;51.196;6.838;2023-03-13T06:38:47;13.50;99.90
37702;DHT22;23548;51.196;6.838;2023-03-13T06:41:13;13.50;99.90
37702;DHT22;23548;51.196;6.838;2023-03-13T06:43:39;13.50;99.90
37702;DHT22;23548;51.196;6.838;2023-03-13T06:46:07;13.50;99.90
37702;DHT22;23548;51.196;6.838;2023-03-13T06:48:33;13.50;99.90
37702;DHT22;23548;51.196;6.838;2023-03-13T06:50:58;13.50;99.90
37702;DHT22;23548;51.196;6.838;2023-03-13T06:53:24;13.50;99.90
37702;DHT22;23548;51.196;6.838;2023-03-13T06:55:50;13.60;99.90
37702;DHT22;23548;51.196;6.838;2023-03-13T06:58:17;13.50;99.90
37702;DHT22;23548;51.196;6.838;2023-03-13T07:00:43;13.60;99.90
37702;DHT22;23548;51.196;6.838;2023-03-13T07:03:10;13.70;99.90
37702;DHT22;23548;51.196;6.838;2023-03-13T07:05:36;13.70;99.90
37702;DHT22;23548;51.196;6.838;2023-03-13T07:08:02;13.80;99.90
37702;DHT22;23548;51.196;6.838;2023-03-13T07:10:31;13.80;99.90
37702;DHT22;23548;51.196;6.838;2023-03-13T07:12:56;13.80;99.90
37702;DHT22;23548;51.196;6.838;2023-03-13T07:15:22;13.80;99.90
37702;DHT22;23548;51.196;6.838;2023-03-13T07:17:48;13.90;99.90
37702;DHT22;23548;51.196;6.838;2023-03-13T07:20:14;13.90;99.90
37702;DHT22;23548;51.196;6.838;2023-03-13T07:22:39;13.80;99.90
37702;DHT22;23548;51.196;6.838;2023-03-13T07:25:05;13.90;99.90
37702;DHT22;23548;51.196;6.838;2023-03-13T07:27:31;13.90;99.90
37702;DHT22;23548;51.196;6.838;2023-03-13T07:29:57;14.00;99.90
37702;DHT22;23548;51.196;6.838;2023-03-13T07:32:23;13.90;99.90
37702;DHT22;23548;51.196;6.838;2023-03-13T07:34:49;13.90;99.90
37702;DHT22;23548;51.196;6.838;2023-03-13T07:37:15;13.90;99.90
37702;DHT22;23548;51.196;6.838;2023-03-13T07:39:42;14.00;99.90
37702;DHT22;23548;51.196;6.838;2023-03-13T07:42:11;14.10;99.90
37702;DHT22;23548;51.196;6.838;2023-03-13T07:44:37;14.00;99.90
37702;DHT22;23548;51.196;6.838;2023-03-13T07:47:03;13.90;99.90
37702;DHT22;23548;51.196;6.838;2023-03-13T07:49:29;14.00;99.90
37702;DHT22;23548;51.196;6.838;2023-03-13T07:51:54;14.00;99.90
37702;DHT22;23548;51.196;6.838;2023-03-13T07:54:20;14.10;99.90
37702;DHT22;23548;51.196;6.838;2023-03-13T07:56:46;14.10;99.90
37702;DHT22;23548;51.196;6.838;2023-03-13T07:59:12;14.10;99.90
37702;DHT22;23548;51.196;6.838;2023-03-13T08:01:37;14.00;99.90
37702;DHT22;23548;51.196;6.838;2023-03-13T08:04:03;14.00;99.90
37702;DHT22;23548;51.196;6.838;2023-03-13T08:06:31;14.00;99.90
37702;DHT22;23548;51.196;6.838;2023-03-13T08:08:57;14.00;99.90
37702;DHT22;23548;51.196;6.838;2023-03-13T08:11:25;14.10;99.90
37702;DHT22;23548;51.196;6.838;2023-03-13T08:13:52;14.10;99.90
37702;DHT22;23548;51.196;6.838;2023-03-13T08:16:27;14.10;99.90
37702;DHT22;23548;51.196;6.838;2023-03-13T08:18:55;14.10;99.90
37702;DHT22;23548;51.196;6.838;2023-03-13T08:21:33;14.00;99.90
37702;DHT22;23548;51.196;6.838;2023-03-13T08:24:01;14.00;99.90
37702;DHT22;23548;51.196;6.838;2023-03-13T08:26:30;14.10;99.90
37702;DHT22;23548;51.196;6.838;2023-03-13T08:29:00;14.20;99.90
37702;DHT22;23548;51.196;6.838;2023-03-13T08:31:31;14.30;99.90
37702;DHT22;23548;51.196;6.838;2023-03-13T08:33:57;14.30;99.90
37702;DHT22;23548;51.196;6.838;2023-03-13T08:36:29;14.20;99.90
37702;DHT22;23548;51.196;6.838;2023-03-13T08:38:58;14.30;99.90
37702;DHT22;23548;51.196;6.838;2023-03-13T08:41:27;14.40;99.90
37702;DHT22;23548;51.196;6.838;2023-03-13T08:43:54;14.30;99.90
37702;DHT22;23548;51.196;6.838;2023-03-13T08:46:21;14.40;99.90
37702;DHT22;23548;51.196;6.838;2023-03-13T08:48:50;14.40;99.90
37702;DHT22;23548;51.196;6.838;2023-03-13T08:51:17;14.40;99.90
37702;DHT22;23548;51.196;6.838;2023-03-13T08:53:43;14.50;99.90
37702;DHT22;23548;51.196;6.838;2023-03-13T08:56:11;14.60;99.90
37702;DHT22;23548;51.196;6.838;2023-03-13T08:58:37;14.50;99.90
37702;DHT22;23548;51.196;6.838;2023-03-13T09:01:13;14.60;99.90
37702;DHT22;23548;51.196;6.838;2023-03-13T09:03:40;14.50;99.90
37702;DHT22;23548;51.196;6.838;2023-03-13T09:06:07;14.50;99.90
37702;DHT22;23548;51.196;6.838;2023-03-13T09:08:36;14.40;99.90
37702;DHT22;23548;51.196;6.838;2023-03-13T09:11:14;14.40;99.90
37702;DHT22;23548;51.196;6.838;2023-03-13T09:13:43;14.50;99.90
37702;DHT22;23548;51.196;6.838;2023-03-13T09:16:15;14.50;99.90
37702;DHT22;23548;51.196;6.838;2023-03-13T09:18:41;14.40;99.90
37702;DHT22;23548;51.196;6.838;2023-03-13T09:21:15;14.50;99.90
37702;DHT22;23548;51.196;6.838;2023-03-13T09:23:41;14.50;99.90
37702;DHT22;23548;51.196;6.838;2023-03-13T09:26:08;14.50;99.90
37702;DHT22;23548;51.196;6.838;2023-03-13T09:28:34;14.60;99.90
37702;DHT22;23548;51.196;6.838;2023-03-13T09:31:14;14.70;99.90
37702;DHT22;23548;51.196;6.838;2023-03-13T09:33:41;14.90;99.90
37702;DHT22;23548;51.196;6.838;2023-03-13T09:36:08;15.00;99.90
37702;DHT22;23548;51.196;6.838;2023-03-13T09:38:35;14.90;99.90
37702;DHT22;23548;51.196;6.838;2023-03-13T09:41:32;14.80;99.90
37702;DHT22;23548;51.196;6.838;2023-03-13T09:44:12;14.80;99.90
37702;DHT22;23548;51.196;6.838;2023-03-13T09:46:44;14.90;99.90
37702;DHT22;23548;51.196;6.838;2023-03-13T09:52:15;14.90;99.90
37702;DHT22;23548;51.196;6.838;2023-03-13T09:57:14;15.10;99.90
37702;DHT22;23548;51.196;6.838;2023-03-13T09:59:56;15.10;99.90
37702;DHT22;23548;51.196;6.838;2023-03-13T10:02:31;15.30;99.90
37702;DHT22;23548;51.196;6.838;2023-03-13T10:05:26;15.50;99.90
37702;DHT22;23548;51.196;6.838;2023-03-13T10:08:08;15.90;99.90
37702;DHT22;23548;51.196;6.838;2023-03-13T10:13:45;16.20;99.90
37702;DHT22;23548;51.196;6.838;2023-03-13T10:16:21;16.10;99.90
37702;DHT22;23548;51.196;6.838;2023-03-13T10:18:55;16.20;99.90
37702;DHT22;23548;51.196;6.838;2023-03-13T10:21:33;15.90;99.90
37702;DHT22;23548;51.196;6.838;2023-03-13T10:24:17;16.10;99.90
37702;DHT22;23548;51.196;6.838;2023-03-13T10:26:43;16.30;99.90
37702;DHT22;23548;51.196;6.838;2023-03-13T10:29:22;16.10;99.90
37702;DHT22;23548;51.196;6.838;2023-03-13T10:31:58;16.10;99.90
37702;DHT22;23548;51.196;6.838;2023-03-13T10:34:26;16.30;99.90
37702;DHT22;23548;51.196;6.838;2023-03-13T10:36:59;16.50;99.90
37702;DHT22;23548;51.196;6.838;2023-03-13T10:39:28;16.50;99.90
37702;DHT22;23548;51.196;6.838;2023-03-13T10:42:17;16.40;99.90
37702;DHT22;23548;51.196;6.838;2023-03-13T10:44:44;16.30;99.90
37702;DHT22;23548;51.196;6.838;2023-03-13T10:47:13;16.30;99.90
37702;DHT22;23548;51.196;6.838;2023-03-13T10:49:50;16.50;99.90
37702;DHT22;23548;51.196;6.838;2023-03-13T10:55:08;16.40;99.90
37702;DHT22;23548;51.196;6.838;2023-03-13T10:57:35;16.50;99.90
37702;DHT22;23548;51.196;6.838;2023-03-13T11:00:21;16.70;99.90
37702;DHT22;23548;51.196;6.838;2023-03-13T11:02:48;16.60;99.90
37702;DHT22;23548;51.196;6.838;2023-03-13T11:05:54;16.60;99.90
37702;DHT22;23548;51.196;6.838;2023-03-13T11:08:24;16.80;99.90
37702;DHT22;23548;51.196;6.838;2023-03-13T11:13:28;16.70;99.90
37702;DHT22;23548;51.196;6.838;2023-03-13T11:15:57;16.70;99.90
37702;DHT22;23548;51.196;6.838;2023-03-13T11:21:30;16.80;99.90
37702;DHT22;23548;51.196;6.838;2023-03-13T11:24:09;16.70;99.90
37702;DHT22;23548;51.196;6.838;2023-03-13T11:26:46;16.60;99.90
37702;DHT22;23548;51.196;6.838;2023-03-13T11:32:37;17.00;99.90
37702;DHT22;23548;51.196;6.838;2023-03-13T11:37:55;17.20;99.90
37702;DHT22;23548;51.196;6.838;2023-03-13T11:43:40;17.50;99.90
37702;DHT22;23548;51.196;6.838;2023-03-13T12:00:57;17.70;99.90
37702;DHT22;23548;51.196;6.838;2023-03-13T12:03:33;17.60;99.90
37702;DHT22;23548;51.196;6.838;2023-03-13T12:06:01;17.40;99.90
37702;DHT22;23548;51.196;6.838;2023-03-13T12:13:28;18.00;99.90
37702;DHT22;23548;51.196;6.838;2023-03-13T12:15:59;18.00;99.90
37702;DHT22;23548;51.196;6.838;2023-03-13T12:18:35;18.00;99.90
37702;DHT22;23548;51.196;6.838;2023-03-13T12:21:46;17.90;99.90
37702;DHT22;23548;51.196;6.838;2023-03-13T12:24:29;18.00;99.90
37702;DHT22;23548;51.196;6.838;2023-03-13T12:27:19;17.80;99.90
37702;DHT22;23548;51.196;6.838;2023-03-13T12:29:59;17.70;99.90
37702;DHT22;23548;51.196;6.838;2023-03-13T12:32:37;17.70;99.90
37702;DHT22;23548;51.196;6.838;2023-03-13T12:43:37;17.50;99.90
37702;DHT22;23548;51.196;6.838;2023-03-13T13:00:15;17.90;99.90
37702;DHT22;23548;51.196;6.838;2023-03-13T13:02:41;17.70;99.90
37702;DHT22;23548;51.196;6.838;2023-03-13T13:05:18;17.60;99.90
37702;DHT22;23548;51.196;6.838;2023-03-13T13:07:52;17.50;99.90
37702;DHT22;23548;51.196;6.838;2023-03-13T13:10:24;17.50;99.90
37702;DHT22;23548;51.196;6.838;2023-03-13T13:15:45;17.60;99.90
37702;DHT22;23548;51.196;6.838;2023-03-13T13:18:27;17.50;99.90
37702;DHT22;23548;51.196;6.838;2023-03-13T13:28:56;17.70;99.90
37702;DHT22;23548;51.196;6.838;2023-03-13T13:47:40;18.10;99.90
37702;DHT22;23548;51.196;6.838;2023-03-13T13:50:20;17.90;99.90
37702;DHT22;23548;51.196;6.838;2023-03-13T13:52:47;17.70;99.90
37702;DHT22;23548;51.196;6.838;2023-03-13T14:00:52;17.90;99.90
37702;DHT22;23548;51.196;6.838;2023-03-13T14:03:26;17.50;99.90
37702;DHT22;23548;51.196;6.838;2023-03-13T14:06:09;17.30;99.90
37702;DHT22;23548;51.196;6.838;2023-03-13T14:08:37;17.40;99.90
37702;DHT22;23548;51.196;6.838;2023-03-13T14:11:21;17.60;99.90
37702;DHT22;23548;51.196;6.838;2023-03-13T14:14:17;17.70;99.90
37702;DHT22;23548;51.196;6.838;2023-03-13T14:16:48;18.20;99.90
37702;DHT22;23548;51.196;6.838;2023-03-13T14:19:22;18.20;99.90
37702;DHT22;23548;51.196;6.838;2023-03-13T14:21:48;18.50;99.90
37702;DHT22;23548;51.196;6.838;2023-03-13T14:24:15;18.20;99.90
37702;DHT22;23548;51.196;6.838;2023-03-13T14:26:42;17.80;99.90
37702;DHT22;23548;51.196;6.838;2023-03-13T14:29:16;17.70;99.90
37702;DHT22;23548;51.196;6.838;2023-03-13T14:31:49;17.90;99.90
37702;DHT22;23548;51.196;6.838;2023-03-13T14:34:15;18.20;99.90
37702;DHT22;23548;51.196;6.838;2023-03-13T14:36:53;18.60;99.90
37702;DHT22;23548;51.196;6.838;2023-03-13T14:41:55;18.40;99.90
37702;DHT22;23548;51.196;6.838;2023-03-13T14:44:28;18.10;99.90
37702;DHT22;23548;51.196;6.838;2023-03-13T14:46:57;17.70;99.90
37702;DHT22;23548;51.196;6.838;2023-03-13T14:49:26;17.40;99.90
37702;DHT22;23548;51.196;6.838;2023-03-13T14:52:06;17.20;99.90
37702;DHT22;23548;51.196;6.838;2023-03-13T14:54:57;17.20;99.90
37702;DHT22;23548;51.196;6.838;2023-03-13T14:57:27;17.20;99.90
37702;DHT22;23548;51.196;6.838;2023-03-13T15:06:03;17.20;99.90
37702;DHT22;23548;51.196;6.838;2023-03-13T15:08:30;17.30;99.90
37702;DHT22;23548;51.196;6.838;2023-03-13T15:10:56;17.30;99.90
37702;DHT22;23548;51.196;6.838;2023-03-13T15:13:37;17.30;99.90
37702;DHT22;23548;51.196;6.838;2023-03-13T15:16:13;17.20;99.90
37702;DHT22;23548;51.196;6.838;2023-03-13T15:18:39;17.30;99.90
37702;DHT22;23548;51.196;6.838;2023-03-13T15:26:15;16.90;99.90
37702;DHT22;23548;51.196;6.838;2023-03-13T15:28:40;16.90;99.90
37702;DHT22;23548;51.196;6.838;2023-03-13T15:31:08;17.20;99.90
37702;DHT22;23548;51.196;6.838;2023-03-13T15:33:34;17.40;99.90
37702;DHT22;23548;51.196;6.838;2023-03-13T15:36:00;17.50;99.90
37702;DHT22;23548;51.196;6.838;2023-03-13T15:38:26;17.40;99.90
37702;DHT22;23548;51.196;6.838;2023-03-13T15:40:52;17.30;99.90
37702;DHT22;23548;51.196;6.838;2023-03-13T15:43:19;17.10;99.90
37702;DHT22;23548;51.196;6.838;2023-03-13T15:45:46;17.20;99.90
37702;DHT22;23548;51.196;6.838;2023-03-13T15:48:16;17.30;99.90
37702;DHT22;23548;51.196;6.838;2023-03-13T15:50:45;17.30;99.90
37702;DHT22;23548;51.196;6.838;2023-03-13T15:53:21;16.90;99.90
37702;DHT22;23548;51.196;6.838;2023-03-13T15:55:49;16.90;99.90
37702;DHT22;23548;51.196;6.838;2023-03-13T15:58:16;17.00;99.90
37702;DHT22;23548;51.196;6.838;2023-03-13T16:00:42;17.10;99.90
37702;DHT22;23548;51.196;6.838;2023-03-13T16:03:17;16.90;99.90
37702;DHT22;23548;51.196;6.838;2023-03-13T16:05:45;16.90;99.90
37702;DHT22;23548;51.196;6.838;2023-03-13T16:08:17;16.80;99.90
37702;DHT22;23548;51.196;6.838;2023-03-13T16:10:43;16.80;99.90
37702;DHT22;23548;51.196;6.838;2023-03-13T16:13:09;16.70;99.90
37702;DHT22;23548;51.196;6.838;2023-03-13T16:15:35;16.60;99.90
37702;DHT22;23548;51.196;6.838;2023-03-13T16:18:01;16.60;99.90
37702;DHT22;23548;51.196;6.838;2023-03-13T16:20:29;16.60;99.90
37702;DHT22;23548;51.196;6.838;2023-03-13T16:22:56;16.50;99.90
37702;DHT22;23548;51.196;6.838;2023-03-13T16:25:23;16.50;99.90
37702;DHT22;23548;51.196;6.838;2023-03-13T16:27:49;16.40;99.90
37702;DHT22;23548;51.196;6.838;2023-03-13T16:30:22;16.30;99.90
37702;DHT22;23548;51.196;6.838;2023-03-13T16:32:48;16.10;99.90
37702;DHT22;23548;51.196;6.838;2023-03-13T16:35:15;16.00;99.90
37702;DHT22;23548;51.196;6.838;2023-03-13T16:37:40;15.80;99.90
37702;DHT22;23548;51.196;6.838;2023-03-13T16:40:28;15.80;99.90
37702;DHT22;23548;51.196;6.838;2023-03-13T16:42:54;15.80;99.90
37702;DHT22;23548;51.196;6.838;2023-03-13T16:45:20;15.90;99.90
37702;DHT22;23548;51.196;6.838;2023-03-13T16:47:47;15.80;99.90
37702;DHT22;23548;51.196;6.838;2023-03-13T16:50:20;15.80;99.90
37702;DHT22;23548;51.196;6.838;2023-03-13T16:52:46;15.70;99.90
37702;DHT22;23548;51.196;6.838;2023-03-13T16:55:12;15.60;99.90
37702;DHT22;23548;51.196;6.838;2023-03-13T16:57:38;15.50;99.90
37702;DHT22;23548;51.196;6.838;2023-03-13T17:02:38;15.50;99.90
37702;DHT22;23548;51.196;6.838;2023-03-13T17:05:04;15.40;99.90
37702;DHT22;23548;51.196;6.838;2023-03-13T17:07:30;15.30;99.90
37702;DHT22;23548;51.196;6.838;2023-03-13T17:09:56;15.20;99.90
37702;DHT22;23548;51.196;6.838;2023-03-13T17:12:22;15.10;99.90
37702;DHT22;23548;51.196;6.838;2023-03-13T17:14:48;15.10;99.90
37702;DHT22;23548;51.196;6.838;2023-03-13T17:17:20;15.10;99.90
37702;DHT22;23548;51.196;6.838;2023-03-13T17:19:46;15.00;99.90
37702;DHT22;23548;51.196;6.838;2023-03-13T17:22:13;14.90;99.90
37702;DHT22;23548;51.196;6.838;2023-03-13T17:24:40;14.90;99.90
37702;DHT22;23548;51.196;6.838;2023-03-13T17:27:13;14.80;99.90
37702;DHT22;23548;51.196;6.838;2023-03-13T17:29:41;14.80;99.90
37702;DHT22;23548;51.196;6.838;2023-03-13T17:32:11;14.80;99.90
37702;DHT22;23548;51.196;6.838;2023-03-13T17:34:37;14.80;99.90
37702;DHT22;23548;51.196;6.838;2023-03-13T17:37:15;14.80;99.90
37702;DHT22;23548;51.196;6.838;2023-03-13T17:39:41;14.70;99.90
37702;DHT22;23548;51.196;6.838;2023-03-13T17:42:08;14.70;99.90
37702;DHT22;23548;51.196;6.838;2023-03-13T17:44:34;14.70;99.90